sensor_id;sensor_type;location;lat;lon;timestamp;temperature;humidity
45989;DHT22;31718;50.762;12.764;2022-07-23T00:00:10;19.10;99.20
45989;DHT22;31718;50.762;12.764;2022-07-23T00:02:36;19.10;99.50
45989;DHT22;31718;50.762;12.764;2022-07-23T00:05:02;19.00;99.10
45989;DHT22;31718;50.762;12.764;2022-07-23T00:07:28;19.00;99.40
45989;DHT22;31718;50.762;12.764;2022-07-23T00:09:54;19.00;99.40
45989;DHT22;31718;50.762;12.764;2022-07-23T00:12:20;19.00;99.30
45989;DHT22;31718;50.762;12.764;2022-07-23T00:14:46;18.90;99.70
45989;DHT22;31718;50.762;12.764;2022-07-23T00:17:11;19.00;99.80
45989;DHT22;31718;50.762;12.764;2022-07-23T00:19:37;18.90;99.70
45989;DHT22;31718;50.762;12.764;2022-07-23T00:22:03;19.00;99.90
45989;DHT22;31718;50.762;12.764;2022-07-23T00:24:29;18.80;99.90
45989;DHT22;31718;50.762;12.764;2022-07-23T00:26:54;18.80;99.90
45989;DHT22;31718;50.762;12.764;2022-07-23T00:29:20;18.80;99.90
45989;DHT22;31718;50.762;12.764;2022-07-23T00:31:45;18.70;99.90
45989;DHT22;31718;50.762;12.764;2022-07-23T00:34:11;18.60;99.90
45989;DHT22;31718;50.762;12.764;2022-07-23T00:36:37;18.60;99.90
45989;DHT22;31718;50.762;12.764;2022-07-23T00:39:02;18.60;99.90
45989;DHT22;31718;50.762;12.764;2022-07-23T00:41:28;18.60;99.90
45989;DHT22;31718;50.762;12.764;2022-07-23T00:43:54;18.60;99.90
45989;DHT22;31718;50.762;12.764;2022-07-23T00:46:21;18.60;99.90
45989;DHT22;31718;50.762;12.764;2022-07-23T00:48:46;18.60;99.90
45989;DHT22;31718;50.762;12.764;2022-07-23T00:51:12;18.50;99.90
45989;DHT22;31718;50.762;12.764;2022-07-23T00:53:38;18.60;99.90
45989;DHT22;31718;50.762;12.764;2022-07-23T00:56:03;18.50;99.90
45989;DHT22;31718;50.762;12.764;2022-07-23T00:58:30;18.50;99.90
45989;DHT22;31718;50.762;12.764;2022-07-23T01:00:55;18.50;99.90
45989;DHT22;31718;50.762;12.764;2022-07-23T01:03:21;18.50;99.90
45989;DHT22;31718;50.762;12.764;2022-07-23T01:05:47;18.50;99.90
45989;DHT22;31718;50.762;12.764;2022-07-23T01:08:13;18.50;99.90
45989;DHT22;31718;50.762;12.764;2022-07-23T01:10:39;18.40;99.90
45989;DHT22;31718;50.762;12.764;2022-07-23T01:13:07;18.30;99.90
45989;DHT22;31718;50.762;12.764;2022-07-23T01:15:35;18.30;99.90
45989;DHT22;31718;50.762;12.764;2022-07-23T01:18:03;18.30;99.90
45989;DHT22;31718;50.762;12.764;2022-07-23T01:20:29;18.30;99.90
45989;DHT22;31718;50.762;12.764;2022-07-23T01:22:55;18.30;99.90
45989;DHT22;31718;50.762;12.764;2022-07-23T01:25:21;18.30;99.90
45989;DHT22;31718;50.762;12.764;2022-07-23T01:27:48;18.30;99.90
45989;DHT22;31718;50.762;12.764;2022-07-23T01:30:14;18.40;99.90
45989;DHT22;31718;50.762;12.764;2022-07-23T01:32:40;18.30;99.90
45989;DHT22;31718;50.762;12.764;2022-07-23T01:35:06;18.30;99.90
45989;DHT22;31718;50.762;12.764;2022-07-23T01:37:32;18.20;99.90
45989;DHT22;31718;50.762;12.764;2022-07-23T01:39:58;18.10;99.90
45989;DHT22;31718;50.762;12.764;2022-07-23T01:42:24;18.00;99.90
45989;DHT22;31718;50.762;12.764;2022-07-23T01:44:50;18.00;99.90
45989;DHT22;31718;50.762;12.764;2022-07-23T01:47:16;18.00;99.90
45989;DHT22;31718;50.762;12.764;2022-07-23T01:49:42;17.90;99.90
45989;DHT22;31718;50.762;12.764;2022-07-23T01:52:07;17.90;99.90
45989;DHT22;31718;50.762;12.764;2022-07-23T01:54:37;17.90;99.90
45989;DHT22;31718;50.762;12.764;2022-07-23T01:57:04;17.90;99.90
45989;DHT22;31718;50.762;12.764;2022-07-23T01:59:30;17.80;99.90
45989;DHT22;31718;50.762;12.764;2022-07-23T02:01:56;17.80;99.90
45989;DHT22;31718;50.762;12.764;2022-07-23T02:04:22;17.90;99.90
45989;DHT22;31718;50.762;12.764;2022-07-23T02:06:49;17.90;99.90
45989;DHT22;31718;50.762;12.764;2022-07-23T02:09:15;17.80;99.90
45989;DHT22;31718;50.762;12.764;2022-07-23T02:11:41;17.70;99.90
45989;DHT22;31718;50.762;12.764;2022-07-23T02:14:06;17.80;99.90
45989;DHT22;31718;50.762;12.764;2022-07-23T02:16:32;17.80;99.90
45989;DHT22;31718;50.762;12.764;2022-07-23T02:18:58;17.80;99.90
45989;DHT22;31718;50.762;12.764;2022-07-23T02:21:23;17.80;99.90
45989;DHT22;31718;50.762;12.764;2022-07-23T02:23:49;17.90;99.90
45989;DHT22;31718;50.762;12.764;2022-07-23T02:26:14;17.90;99.90
45989;DHT22;31718;50.762;12.764;2022-07-23T02:28:40;18.00;99.90
45989;DHT22;31718;50.762;12.764;2022-07-23T02:31:06;18.00;99.90
45989;DHT22;31718;50.762;12.764;2022-07-23T02:33:32;18.00;99.90
45989;DHT22;31718;50.762;12.764;2022-07-23T02:35:58;18.00;99.90
45989;DHT22;31718;50.762;12.764;2022-07-23T02:38:24;18.00;99.90
45989;DHT22;31718;50.762;12.764;2022-07-23T02:40:49;18.00;99.90
45989;DHT22;31718;50.762;12.764;2022-07-23T02:43:15;18.00;99.90
45989;DHT22;31718;50.762;12.764;2022-07-23T02:45:41;18.00;99.90
45989;DHT22;31718;50.762;12.764;2022-07-23T02:48:06;18.00;99.90
45989;DHT22;31718;50.762;12.764;2022-07-23T02:50:32;17.90;99.90
45989;DHT22;31718;50.762;12.764;2022-07-23T02:52:57;17.90;99.90
45989;DHT22;31718;50.762;12.764;2022-07-23T02:55:23;17.90;99.90
45989;DHT22;31718;50.762;12.764;2022-07-23T02:57:49;17.90;99.90
45989;DHT22;31718;50.762;12.764;2022-07-23T03:00:14;17.90;99.90
45989;DHT22;31718;50.762;12.764;2022-07-23T03:02:40;17.70;99.90
45989;DHT22;31718;50.762;12.764;2022-07-23T03:05:06;17.70;99.90
45989;DHT22;31718;50.762;12.764;2022-07-23T03:07:32;17.70;99.90
45989;DHT22;31718;50.762;12.764;2022-07-23T03:09:57;17.70;99.90
45989;DHT22;31718;50.762;12.764;2022-07-23T03:12:23;17.70;99.90
45989;DHT22;31718;50.762;12.764;2022-07-23T03:14:49;17.70;99.90
45989;DHT22;31718;50.762;12.764;2022-07-23T03:17:14;17.70;99.90
45989;DHT22;31718;50.762;12.764;2022-07-23T03:19:40;17.70;99.90
45989;DHT22;31718;50.762;12.764;2022-07-23T03:22:06;17.60;99.90
45989;DHT22;31718;50.762;12.764;2022-07-23T03:24:32;17.70;99.90
45989;DHT22;31718;50.762;12.764;2022-07-23T03:27:16;17.70;99.90
45989;DHT22;31718;50.762;12.764;2022-07-23T03:29:41;17.70;99.90
45989;DHT22;31718;50.762;12.764;2022-07-23T03:32:07;17.70;99.90
45989;DHT22;31718;50.762;12.764;2022-07-23T03:34:33;17.70;99.90
45989;DHT22;31718;50.762;12.764;2022-07-23T03:36:58;17.60;99.90
45989;DHT22;31718;50.762;12.764;2022-07-23T03:39:24;17.60;99.90
45989;DHT22;31718;50.762;12.764;2022-07-23T03:41:49;17.40;99.90
45989;DHT22;31718;50.762;12.764;2022-07-23T03:44:15;17.30;99.90
45989;DHT22;31718;50.762;12.764;2022-07-23T03:46:41;17.40;99.90
45989;DHT22;31718;50.762;12.764;2022-07-23T03:49:06;17.40;99.90
45989;DHT22;31718;50.762;12.764;2022-07-23T03:51:32;17.40;99.90
45989;DHT22;31718;50.762;12.764;2022-07-23T03:53:58;17.50;99.90
45989;DHT22;31718;50.762;12.764;2022-07-23T03:56:23;17.50;99.90
45989;DHT22;31718;50.762;12.764;2022-07-23T03:58:49;17.50;99.90
45989;DHT22;31718;50.762;12.764;2022-07-23T04:01:15;17.60;99.90
45989;DHT22;31718;50.762;12.764;2022-07-23T04:03:40;17.60;99.90
45989;DHT22;31718;50.762;12.764;2022-07-23T04:06:06;17.60;99.90
45989;DHT22;31718;50.762;12.764;2022-07-23T04:08:32;17.70;99.90
45989;DHT22;31718;50.762;12.764;2022-07-23T04:10:58;17.80;99.90
45989;DHT22;31718;50.762;12.764;2022-07-23T04:13:23;17.80;99.90
45989;DHT22;31718;50.762;12.764;2022-07-23T04:15:49;17.80;99.90
45989;DHT22;31718;50.762;12.764;2022-07-23T04:18:16;17.80;99.90
45989;DHT22;31718;50.762;12.764;2022-07-23T04:20:45;17.80;99.90
45989;DHT22;31718;50.762;12.764;2022-07-23T04:23:11;17.90;99.90
45989;DHT22;31718;50.762;12.764;2022-07-23T04:25:37;18.00;99.90
45989;DHT22;31718;50.762;12.764;2022-07-23T04:28:03;17.90;99.90
45989;DHT22;31718;50.762;12.764;2022-07-23T04:30:29;18.00;99.90
45989;DHT22;31718;50.762;12.764;2022-07-23T04:32:54;18.00;99.90
45989;DHT22;31718;50.762;12.764;2022-07-23T04:35:20;18.10;99.90
45989;DHT22;31718;50.762;12.764;2022-07-23T04:37:46;18.10;99.90
45989;DHT22;31718;50.762;12.764;2022-07-23T04:40:12;18.10;99.90
45989;DHT22;31718;50.762;12.764;2022-07-23T04:42:38;18.10;99.90
45989;DHT22;31718;50.762;12.764;2022-07-23T04:45:04;18.10;99.90
45989;DHT22;31718;50.762;12.764;2022-07-23T04:47:30;18.00;99.90
45989;DHT22;31718;50.762;12.764;2022-07-23T04:49:56;17.80;99.90
45989;DHT22;31718;50.762;12.764;2022-07-23T04:52:22;17.70;99.90
45989;DHT22;31718;50.762;12.764;2022-07-23T04:54:48;17.60;99.90
45989;DHT22;31718;50.762;12.764;2022-07-23T04:57:13;17.60;99.90
45989;DHT22;31718;50.762;12.764;2022-07-23T04:59:39;17.60;99.90
45989;DHT22;31718;50.762;12.764;2022-07-23T05:02:05;17.50;99.90
45989;DHT22;31718;50.762;12.764;2022-07-23T05:04:30;17.40;99.90
45989;DHT22;31718;50.762;12.764;2022-07-23T05:06:57;17.30;99.90
45989;DHT22;31718;50.762;12.764;2022-07-23T05:09:22;17.20;99.90
45989;DHT22;31718;50.762;12.764;2022-07-23T05:11:48;17.10;99.90
45989;DHT22;31718;50.762;12.764;2022-07-23T05:14:14;17.20;99.90
45989;DHT22;31718;50.762;12.764;2022-07-23T05:16:40;17.20;99.90
45989;DHT22;31718;50.762;12.764;2022-07-23T05:19:05;17.00;99.90
45989;DHT22;31718;50.762;12.764;2022-07-23T05:21:31;16.90;99.90
45989;DHT22;31718;50.762;12.764;2022-07-23T05:23:56;16.80;99.90
45989;DHT22;31718;50.762;12.764;2022-07-23T05:26:22;16.80;99.90
45989;DHT22;31718;50.762;12.764;2022-07-23T05:28:47;16.90;99.90
45989;DHT22;31718;50.762;12.764;2022-07-23T05:31:13;16.90;99.90
45989;DHT22;31718;50.762;12.764;2022-07-23T05:33:38;16.90;99.90
45989;DHT22;31718;50.762;12.764;2022-07-23T05:36:04;16.80;99.90
45989;DHT22;31718;50.762;12.764;2022-07-23T05:38:31;16.90;99.90
45989;DHT22;31718;50.762;12.764;2022-07-23T05:40:57;17.00;99.90
45989;DHT22;31718;50.762;12.764;2022-07-23T05:43:22;16.90;99.90
45989;DHT22;31718;50.762;12.764;2022-07-23T05:45:48;16.90;99.90
45989;DHT22;31718;50.762;12.764;2022-07-23T05:48:13;17.10;99.90
45989;DHT22;31718;50.762;12.764;2022-07-23T05:50:39;17.10;99.90
45989;DHT22;31718;50.762;12.764;2022-07-23T05:53:05;17.20;99.90
45989;DHT22;31718;50.762;12.764;2022-07-23T05:55:30;17.30;99.90
45989;DHT22;31718;50.762;12.764;2022-07-23T05:57:57;17.40;99.90
45989;DHT22;31718;50.762;12.764;2022-07-23T06:00:23;17.40;99.90
45989;DHT22;31718;50.762;12.764;2022-07-23T06:02:49;17.30;99.90
45989;DHT22;31718;50.762;12.764;2022-07-23T06:05:15;17.20;99.90
45989;DHT22;31718;50.762;12.764;2022-07-23T06:07:41;17.00;99.90
45989;DHT22;31718;50.762;12.764;2022-07-23T06:10:07;17.10;99.90
45989;DHT22;31718;50.762;12.764;2022-07-23T06:12:33;17.10;99.90
45989;DHT22;31718;50.762;12.764;2022-07-23T06:14:59;17.10;99.90
45989;DHT22;31718;50.762;12.764;2022-07-23T06:17:26;17.10;99.90
45989;DHT22;31718;50.762;12.764;2022-07-23T06:19:53;17.10;99.90
45989;DHT22;31718;50.762;12.764;2022-07-23T06:22:18;17.20;99.90
45989;DHT22;31718;50.762;12.764;2022-07-23T06:24:44;17.20;99.90
45989;DHT22;31718;50.762;12.764;2022-07-23T06:27:09;17.30;99.90
45989;DHT22;31718;50.762;12.764;2022-07-23T06:29:35;17.50;99.90
45989;DHT22;31718;50.762;12.764;2022-07-23T06:32:01;17.50;99.90
45989;DHT22;31718;50.762;12.764;2022-07-23T06:34:26;17.50;99.90
45989;DHT22;31718;50.762;12.764;2022-07-23T06:36:52;17.30;99.90
45989;DHT22;31718;50.762;12.764;2022-07-23T06:39:17;17.30;99.90
45989;DHT22;31718;50.762;12.764;2022-07-23T06:41:43;17.20;99.90
45989;DHT22;31718;50.762;12.764;2022-07-23T06:44:09;17.20;99.90
45989;DHT22;31718;50.762;12.764;2022-07-23T06:46:34;17.10;99.90
45989;DHT22;31718;50.762;12.764;2022-07-23T06:49:00;17.10;99.90
45989;DHT22;31718;50.762;12.764;2022-07-23T06:51:26;17.10;99.90
45989;DHT22;31718;50.762;12.764;2022-07-23T06:53:51;17.10;99.90
45989;DHT22;31718;50.762;12.764;2022-07-23T06:56:17;17.40;99.90
45989;DHT22;31718;50.762;12.764;2022-07-23T06:58:43;17.50;99.90
45989;DHT22;31718;50.762;12.764;2022-07-23T07:01:08;17.60;99.90
45989;DHT22;31718;50.762;12.764;2022-07-23T07:03:34;17.90;99.90
45989;DHT22;31718;50.762;12.764;2022-07-23T07:05:59;17.80;99.90
45989;DHT22;31718;50.762;12.764;2022-07-23T07:08:25;17.80;99.90
45989;DHT22;31718;50.762;12.764;2022-07-23T07:10:51;17.80;99.90
45989;DHT22;31718;50.762;12.764;2022-07-23T07:13:16;17.90;99.90
45989;DHT22;31718;50.762;12.764;2022-07-23T07:15:42;18.00;99.90
45989;DHT22;31718;50.762;12.764;2022-07-23T07:18:07;18.10;99.90
45989;DHT22;31718;50.762;12.764;2022-07-23T07:20:33;18.40;99.90
45989;DHT22;31718;50.762;12.764;2022-07-23T07:22:59;18.90;99.90
45989;DHT22;31718;50.762;12.764;2022-07-23T07:25:24;19.10;99.90
45989;DHT22;31718;50.762;12.764;2022-07-23T07:27:50;19.40;99.90
45989;DHT22;31718;50.762;12.764;2022-07-23T07:30:16;19.30;99.90
45989;DHT22;31718;50.762;12.764;2022-07-23T07:32:42;19.20;99.90
45989;DHT22;31718;50.762;12.764;2022-07-23T07:35:08;19.40;99.90
45989;DHT22;31718;50.762;12.764;2022-07-23T07:37:33;19.30;99.90
45989;DHT22;31718;50.762;12.764;2022-07-23T07:39:59;19.70;99.90
45989;DHT22;31718;50.762;12.764;2022-07-23T07:42:25;20.20;99.90
45989;DHT22;31718;50.762;12.764;2022-07-23T07:44:50;20.50;99.90
45989;DHT22;31718;50.762;12.764;2022-07-23T07:47:16;20.80;99.90
45989;DHT22;31718;50.762;12.764;2022-07-23T07:49:42;20.70;99.90
45989;DHT22;31718;50.762;12.764;2022-07-23T07:52:08;20.60;99.90
45989;DHT22;31718;50.762;12.764;2022-07-23T07:54:34;20.50;99.90
45989;DHT22;31718;50.762;12.764;2022-07-23T07:57:00;20.70;99.90
45989;DHT22;31718;50.762;12.764;2022-07-23T07:59:26;20.90;99.90
45989;DHT22;31718;50.762;12.764;2022-07-23T08:01:51;21.00;99.90
45989;DHT22;31718;50.762;12.764;2022-07-23T08:04:17;20.90;99.90
45989;DHT22;31718;50.762;12.764;2022-07-23T08:06:43;20.50;99.90
45989;DHT22;31718;50.762;12.764;2022-07-23T08:09:08;20.30;99.90
45989;DHT22;31718;50.762;12.764;2022-07-23T08:11:34;20.40;99.90
45989;DHT22;31718;50.762;12.764;2022-07-23T08:13:59;20.50;99.90
45989;DHT22;31718;50.762;12.764;2022-07-23T08:16:25;20.50;99.90
45989;DHT22;31718;50.762;12.764;2022-07-23T08:18:50;20.30;99.90
45989;DHT22;31718;50.762;12.764;2022-07-23T08:21:16;20.30;99.90
45989;DHT22;31718;50.762;12.764;2022-07-23T08:23:42;20.50;99.90
45989;DHT22;31718;50.762;12.764;2022-07-23T08:26:07;20.60;99.90
45989;DHT22;31718;50.762;12.764;2022-07-23T08:28:33;20.50;99.90
45989;DHT22;31718;50.762;12.764;2022-07-23T08:30:59;20.60;99.90
45989;DHT22;31718;50.762;12.764;2022-07-23T08:33:25;20.90;99.90
45989;DHT22;31718;50.762;12.764;2022-07-23T08:35:50;20.80;99.90
45989;DHT22;31718;50.762;12.764;2022-07-23T08:38:20;21.00;99.90
45989;DHT22;31718;50.762;12.764;2022-07-23T08:40:54;21.30;99.90
45989;DHT22;31718;50.762;12.764;2022-07-23T08:43:22;21.70;99.90
45989;DHT22;31718;50.762;12.764;2022-07-23T08:45:50;22.10;99.90
45989;DHT22;31718;50.762;12.764;2022-07-23T08:48:23;22.20;99.90
45989;DHT22;31718;50.762;12.764;2022-07-23T08:50:51;22.20;99.90
45989;DHT22;31718;50.762;12.764;2022-07-23T08:53:18;22.60;99.90
45989;DHT22;31718;50.762;12.764;2022-07-23T08:55:45;22.90;99.90
45989;DHT22;31718;50.762;12.764;2022-07-23T08:58:12;23.10;99.90
45989;DHT22;31718;50.762;12.764;2022-07-23T09:00:37;23.20;99.90
45989;DHT22;31718;50.762;12.764;2022-07-23T09:03:03;23.10;99.90
45989;DHT22;31718;50.762;12.764;2022-07-23T09:05:29;23.20;99.90
45989;DHT22;31718;50.762;12.764;2022-07-23T09:08:10;23.30;99.90
45989;DHT22;31718;50.762;12.764;2022-07-23T09:10:49;23.40;99.90
45989;DHT22;31718;50.762;12.764;2022-07-23T09:16:04;23.50;99.90
45989;DHT22;31718;50.762;12.764;2022-07-23T09:21:23;23.20;99.90
45989;DHT22;31718;50.762;12.764;2022-07-23T09:23:59;23.30;99.90
45989;DHT22;31718;50.762;12.764;2022-07-23T09:26:39;23.30;99.70
45989;DHT22;31718;50.762;12.764;2022-07-23T09:29:19;23.20;99.10
45989;DHT22;31718;50.762;12.764;2022-07-23T09:34:16;23.20;99.90
45989;DHT22;31718;50.762;12.764;2022-07-23T09:36:42;23.20;99.50
45989;DHT22;31718;50.762;12.764;2022-07-23T09:39:08;23.30;99.90
45989;DHT22;31718;50.762;12.764;2022-07-23T09:41:43;23.30;99.90
45989;DHT22;31718;50.762;12.764;2022-07-23T09:44:14;23.50;99.90
45989;DHT22;31718;50.762;12.764;2022-07-23T09:46:42;23.70;99.90
45989;DHT22;31718;50.762;12.764;2022-07-23T09:49:23;23.80;99.90
45989;DHT22;31718;50.762;12.764;2022-07-23T09:51:58;23.90;99.10
45989;DHT22;31718;50.762;12.764;2022-07-23T09:56:53;24.10;99.10
45989;DHT22;31718;50.762;12.764;2022-07-23T09:59:23;24.20;98.50
45989;DHT22;31718;50.762;12.764;2022-07-23T10:01:51;24.10;98.20
45989;DHT22;31718;50.762;12.764;2022-07-23T10:04:18;24.10;98.60
45989;DHT22;31718;50.762;12.764;2022-07-23T10:06:43;24.30;99.30
45989;DHT22;31718;50.762;12.764;2022-07-23T10:09:12;23.90;97.20
45989;DHT22;31718;50.762;12.764;2022-07-23T10:11:39;23.80;97.30
45989;DHT22;31718;50.762;12.764;2022-07-23T10:14:05;23.50;97.90
45989;DHT22;31718;50.762;12.764;2022-07-23T10:16:31;23.40;98.10
45989;DHT22;31718;50.762;12.764;2022-07-23T10:18:57;23.40;98.80
45989;DHT22;31718;50.762;12.764;2022-07-23T10:21:44;23.20;98.00
45989;DHT22;31718;50.762;12.764;2022-07-23T10:33:27;22.80;99.20
45989;DHT22;31718;50.762;12.764;2022-07-23T10:36:21;22.40;99.20
45989;DHT22;31718;50.762;12.764;2022-07-23T10:38:54;22.20;99.70
45989;DHT22;31718;50.762;12.764;2022-07-23T10:41:40;22.00;99.90
45989;DHT22;31718;50.762;12.764;2022-07-23T10:46:35;21.90;99.90
45989;DHT22;31718;50.762;12.764;2022-07-23T10:49:26;21.80;99.90
45989;DHT22;31718;50.762;12.764;2022-07-23T10:57:15;22.20;99.90
45989;DHT22;31718;50.762;12.764;2022-07-23T11:02:34;22.40;99.90
45989;DHT22;31718;50.762;12.764;2022-07-23T11:05:07;22.30;99.90
45989;DHT22;31718;50.762;12.764;2022-07-23T11:07:34;22.30;99.90
45989;DHT22;31718;50.762;12.764;2022-07-23T11:10:00;22.30;99.90
45989;DHT22;31718;50.762;12.764;2022-07-23T11:15:11;21.80;99.90
45989;DHT22;31718;50.762;12.764;2022-07-23T11:17:57;21.60;99.90
45989;DHT22;31718;50.762;12.764;2022-07-23T11:20:25;21.30;99.90
45989;DHT22;31718;50.762;12.764;2022-07-23T11:22:56;21.50;99.90
45989;DHT22;31718;50.762;12.764;2022-07-23T11:27:50;21.80;99.90
45989;DHT22;31718;50.762;12.764;2022-07-23T11:33:15;22.10;99.90
45989;DHT22;31718;50.762;12.764;2022-07-23T11:35:49;22.10;99.90
45989;DHT22;31718;50.762;12.764;2022-07-23T11:38:20;22.30;99.90
45989;DHT22;31718;50.762;12.764;2022-07-23T11:40:54;22.50;99.90
45989;DHT22;31718;50.762;12.764;2022-07-23T11:43:21;22.70;99.90
45989;DHT22;31718;50.762;12.764;2022-07-23T11:45:49;22.80;99.90
45989;DHT22;31718;50.762;12.764;2022-07-23T11:48:29;22.70;99.90
45989;DHT22;31718;50.762;12.764;2022-07-23T11:50:56;22.70;99.90
45989;DHT22;31718;50.762;12.764;2022-07-23T11:53:32;23.10;99.90
45989;DHT22;31718;50.762;12.764;2022-07-23T11:56:10;23.30;99.90
45989;DHT22;31718;50.762;12.764;2022-07-23T11:58:36;23.40;99.90
45989;DHT22;31718;50.762;12.764;2022-07-23T12:01:03;23.50;99.90
45989;DHT22;31718;50.762;12.764;2022-07-23T12:03:29;23.60;99.90
45989;DHT22;31718;50.762;12.764;2022-07-23T12:05:59;23.50;99.90
45989;DHT22;31718;50.762;12.764;2022-07-23T12:08:25;23.40;99.90
45989;DHT22;31718;50.762;12.764;2022-07-23T12:10:50;23.20;99.90
45989;DHT22;31718;50.762;12.764;2022-07-23T12:13:18;23.20;99.70
45989;DHT22;31718;50.762;12.764;2022-07-23T12:15:47;23.10;99.50
45989;DHT22;31718;50.762;12.764;2022-07-23T12:18:17;23.40;99.90
45989;DHT22;31718;50.762;12.764;2022-07-23T12:20:46;23.70;99.90
45989;DHT22;31718;50.762;12.764;2022-07-23T12:23:14;23.60;98.90
45989;DHT22;31718;50.762;12.764;2022-07-23T12:25:43;23.80;99.90
45989;DHT22;31718;50.762;12.764;2022-07-23T12:28:34;23.90;99.70
45989;DHT22;31718;50.762;12.764;2022-07-23T12:31:03;24.10;99.90
45989;DHT22;31718;50.762;12.764;2022-07-23T12:33:31;24.30;99.40
45989;DHT22;31718;50.762;12.764;2022-07-23T12:35:59;24.30;99.40
45989;DHT22;31718;50.762;12.764;2022-07-23T12:38:27;24.20;98.40
45989;DHT22;31718;50.762;12.764;2022-07-23T12:40:55;24.30;99.30
45989;DHT22;31718;50.762;12.764;2022-07-23T12:43:23;24.30;99.90
45989;DHT22;31718;50.762;12.764;2022-07-23T12:45:50;24.40;99.10
45989;DHT22;31718;50.762;12.764;2022-07-23T12:48:19;24.50;98.60
45989;DHT22;31718;50.762;12.764;2022-07-23T12:51:06;24.10;98.00
45989;DHT22;31718;50.762;12.764;2022-07-23T12:53:43;23.80;97.80
45989;DHT22;31718;50.762;12.764;2022-07-23T12:56:14;23.60;98.40
45989;DHT22;31718;50.762;12.764;2022-07-23T12:58:44;23.60;99.10
45989;DHT22;31718;50.762;12.764;2022-07-23T13:07:00;23.40;99.60
45989;DHT22;31718;50.762;12.764;2022-07-23T13:09:31;22.90;99.20
45989;DHT22;31718;50.762;12.764;2022-07-23T13:11:57;22.80;99.70
45989;DHT22;31718;50.762;12.764;2022-07-23T13:14:24;22.80;99.90
45989;DHT22;31718;50.762;12.764;2022-07-23T13:16:51;22.80;99.90
45989;DHT22;31718;50.762;12.764;2022-07-23T13:19:17;22.90;99.90
45989;DHT22;31718;50.762;12.764;2022-07-23T13:21:43;22.80;99.80
45989;DHT22;31718;50.762;12.764;2022-07-23T13:24:09;22.90;99.90
45989;DHT22;31718;50.762;12.764;2022-07-23T13:26:36;22.90;99.90
45989;DHT22;31718;50.762;12.764;2022-07-23T13:29:02;23.20;99.90
45989;DHT22;31718;50.762;12.764;2022-07-23T13:31:28;23.30;99.90
45989;DHT22;31718;50.762;12.764;2022-07-23T13:33:54;23.40;99.10
45989;DHT22;31718;50.762;12.764;2022-07-23T13:36:19;23.20;99.40
45989;DHT22;31718;50.762;12.764;2022-07-23T13:38:45;23.00;99.40
45989;DHT22;31718;50.762;12.764;2022-07-23T13:41:10;23.10;99.50
45989;DHT22;31718;50.762;12.764;2022-07-23T13:43:36;23.20;99.20
45989;DHT22;31718;50.762;12.764;2022-07-23T13:46:03;23.30;99.60
45989;DHT22;31718;50.762;12.764;2022-07-23T13:48:29;23.20;98.90
45989;DHT22;31718;50.762;12.764;2022-07-23T13:50:54;22.90;98.50
45989;DHT22;31718;50.762;12.764;2022-07-23T13:53:22;22.90;99.30
45989;DHT22;31718;50.762;12.764;2022-07-23T13:55:51;22.70;99.00
45989;DHT22;31718;50.762;12.764;2022-07-23T13:58:18;22.70;99.40
45989;DHT22;31718;50.762;12.764;2022-07-23T14:00:50;22.50;99.60
45989;DHT22;31718;50.762;12.764;2022-07-23T14:03:17;22.40;99.50
45989;DHT22;31718;50.762;12.764;2022-07-23T14:05:43;22.50;99.60
45989;DHT22;31718;50.762;12.764;2022-07-23T14:08:10;22.60;99.90
45989;DHT22;31718;50.762;12.764;2022-07-23T14:10:36;23.00;99.90
45989;DHT22;31718;50.762;12.764;2022-07-23T14:13:02;23.10;99.90
45989;DHT22;31718;50.762;12.764;2022-07-23T14:15:29;23.20;99.60
45989;DHT22;31718;50.762;12.764;2022-07-23T14:17:55;23.20;98.40
45989;DHT22;31718;50.762;12.764;2022-07-23T14:20:21;22.80;98.80
45989;DHT22;31718;50.762;12.764;2022-07-23T14:22:47;22.70;99.10
45989;DHT22;31718;50.762;12.764;2022-07-23T14:25:15;22.60;99.20
45989;DHT22;31718;50.762;12.764;2022-07-23T14:27:41;22.40;99.90
45989;DHT22;31718;50.762;12.764;2022-07-23T14:30:08;22.50;99.60
45989;DHT22;31718;50.762;12.764;2022-07-23T14:32:34;22.60;99.60
45989;DHT22;31718;50.762;12.764;2022-07-23T14:35:00;22.80;99.90
45989;DHT22;31718;50.762;12.764;2022-07-23T14:37:25;22.60;99.00
45989;DHT22;31718;50.762;12.764;2022-07-23T14:39:51;22.50;99.80
45989;DHT22;31718;50.762;12.764;2022-07-23T14:42:17;22.40;99.80
45989;DHT22;31718;50.762;12.764;2022-07-23T14:44:43;22.40;99.80
45989;DHT22;31718;50.762;12.764;2022-07-23T14:47:09;22.40;99.90
45989;DHT22;31718;50.762;12.764;2022-07-23T14:49:35;22.60;99.90
45989;DHT22;31718;50.762;12.764;2022-07-23T14:52:01;22.40;99.50
45989;DHT22;31718;50.762;12.764;2022-07-23T14:54:28;22.50;99.90
45989;DHT22;31718;50.762;12.764;2022-07-23T14:56:55;22.70;99.90
45989;DHT22;31718;50.762;12.764;2022-07-23T14:59:21;22.60;99.50
45989;DHT22;31718;50.762;12.764;2022-07-23T15:01:46;22.80;99.90
45989;DHT22;31718;50.762;12.764;2022-07-23T15:04:12;23.10;99.90
45989;DHT22;31718;50.762;12.764;2022-07-23T15:06:38;23.00;99.70
45989;DHT22;31718;50.762;12.764;2022-07-23T15:09:04;23.00;99.70
45989;DHT22;31718;50.762;12.764;2022-07-23T15:11:30;23.10;99.80
45989;DHT22;31718;50.762;12.764;2022-07-23T15:13:59;23.10;99.70
45989;DHT22;31718;50.762;12.764;2022-07-23T15:16:25;23.20;99.50
45989;DHT22;31718;50.762;12.764;2022-07-23T15:18:51;23.20;98.90
45989;DHT22;31718;50.762;12.764;2022-07-23T15:21:16;23.00;99.90
45989;DHT22;31718;50.762;12.764;2022-07-23T15:23:42;22.80;98.70
45989;DHT22;31718;50.762;12.764;2022-07-23T15:26:08;23.00;99.00
45989;DHT22;31718;50.762;12.764;2022-07-23T15:28:34;22.80;99.20
45989;DHT22;31718;50.762;12.764;2022-07-23T15:31:00;22.80;99.90
45989;DHT22;31718;50.762;12.764;2022-07-23T15:33:26;22.90;99.40
45989;DHT22;31718;50.762;12.764;2022-07-23T15:35:52;23.00;99.30
45989;DHT22;31718;50.762;12.764;2022-07-23T15:38:20;23.00;99.90
45989;DHT22;31718;50.762;12.764;2022-07-23T15:40:46;23.20;99.30
45989;DHT22;31718;50.762;12.764;2022-07-23T15:43:11;23.20;98.60
45989;DHT22;31718;50.762;12.764;2022-07-23T15:45:39;23.20;98.90
45989;DHT22;31718;50.762;12.764;2022-07-23T15:48:05;23.10;98.40
45989;DHT22;31718;50.762;12.764;2022-07-23T15:50:30;23.10;98.60
45989;DHT22;31718;50.762;12.764;2022-07-23T15:52:56;23.00;99.30
45989;DHT22;31718;50.762;12.764;2022-07-23T15:55:22;23.00;99.20
45989;DHT22;31718;50.762;12.764;2022-07-23T15:57:47;23.00;98.70